Hamilton, KS

7:00 PM CDT on July 22, 2014 (GMT -0500)
Emporia Municipal (KEMP) Elev 1207 ft | 38.33 °N, 96.19 °W | Change Station
Active Advisory: Heat Advisory

Current weather conditions updated 7 minutes ago

Clear
Clear
97 °F
Feels Like 100 °F
N
5
Wind Variable Wind from WSW

Tomorrow is forecast to be Cooler than today.

Today
High -- | Low -- °F
--% Chance of Precip.
Yesterday
High -- | Low -- °F
Precip. -- in
6:19 AM 8:42 PM
Waning Crescent, 14% visible
Pressure 29.99 in
Visibility 10.0 miles
Clouds Clear
Heat Index 100 °F
Dew Point 66 °F
Humidity 36%
Rainfall 0.00 in
Snow Depth Not available.
UV 1 out of 12
Pollen 5.40 out of 12
Air Quality Not available.
Flu Activity Not available.
METAR KEMP 222353Z AUTO 24004KT 10SM CLR 36/19 A3003 RMK AO2 SLP154 T03610189 10383 20344 55001

More Conditions Fewer Conditions

Pressure 29.99 in
Visibility 10.0 miles
Clouds Clear
Heat Index 100 °F
Dew Point 66 °F
Humidity 36%
Rainfall 0.00 in
Snow Depth Not available.
UV 1 out of 12
Pollen 5.40 out of 12
Air Quality Not available.
Flu Activity Not available.
METAR KEMP 222353Z AUTO 24004KT 10SM CLR 36/19 A3003 RMK AO2 SLP154 T03610189 10383 20344 55001

More Conditions Fewer Conditions

10-Day Weather Forecast

Almanac

Astronomy

Jul. 22, 2014 Rise Set
Actual Time 6:19 AM CDT 8:42 PM CDT
Civil Twilight 5:49 AM CDT 9:12 PM CDT
Nautical Twilight 5:12 AM CDT 9:49 PM CDT
Astronomical Twilight 4:31 AM CDT 10:30 PM CDT
Moon 2:52 AM CDT (7/22) 5:21 PM CDT (7/22)
Length of Visible Light 15h 22m
Length of Day
14h 22m
Tomorrow will be 1m 33s shorter.
Waning Crescent, 14% of the Moon is Illuminated
Today
Waning Crescent
Jul 26
New
Aug 3
First Quarter
Aug 10
Full
Aug 17
Last Quarter

Today's Extremes

State Highs State Lows

Community

WunderPhotos

Upload Photos

1,736,391 photos uploaded!

Nearby

Snow Depth

Station Depth Elevation
No new snow has been reported.

Earthquake Activity

City Distance Mag. Time & Date
Helena, Oklahoma 140 miles 3.2 8:41 AM CDT
2014-07-18
Perry, Oklahoma 141 miles 2.8 8:37 PM CDT
2014-07-17
Caldwell, Kansas 107 miles 3.6 5:40 AM CDT
2014-07-17
Perry, Oklahoma 138 miles 2.5 2:34 AM CDT
2014-07-17
Minimum magnitude displayed is 2.5.

Coastal Water Temperatures

Place Temperature
No Stations Reporting

Nearby Weather Stations

Station Location Temp. Heat Index Dew Point Humidity Wind Precip. Elev Updated Type
Toronto, KS, Toronto, KS 93.0 °F 111 °F 80 °F 65% South  at  0.0 mph 0.00 in / hr 971 ft 7:00 PM CDT Normal
Gridley Fire Station, Gridley, KS 97.6 °F 112 °F 76 °F 50% SSE  at  6.0 mph 0.00 in / hr 1161 ft 6:53 PM CDT Normal
T-K Weather Station West Hartford, Kansa, Hartford, KS 106.5 °F 124 °F 76 °F 39% SE  at  0.0 mph - / hr 1129 ft 6:46 PM CDT Normal
HADS FALL RIVER LAKE NEAR FALL RIVER KS, Fall River, KS 97 °F 114 °F 78 °F 54% SSW  at  6 mph 0.00 in / hr 1020 ft 6:00 PM CDT MADIS

Show More Stations Show Fewer Stations